sensor_id;sensor_type;location;lat;lon;timestamp;temperature;humidity
5930;DHT22;2990;48.746;9.236;2023-09-19T00:01:28;16.10;44.10
5930;DHT22;2990;48.746;9.236;2023-09-19T00:03:56;16.10;52.10
5930;DHT22;2990;48.746;9.236;2023-09-19T00:06:22;16.10;53.10
5930;DHT22;2990;48.746;9.236;2023-09-19T00:08:52;16.10;53.00
5930;DHT22;2990;48.746;9.236;2023-09-19T00:11:18;16.10;56.50
5930;DHT22;2990;48.746;9.236;2023-09-19T00:13:44;16.10;60.90
5930;DHT22;2990;48.746;9.236;2023-09-19T00:16:10;16.10;69.00
5930;DHT22;2990;48.746;9.236;2023-09-19T00:18:37;16.00;80.60
5930;DHT22;2990;48.746;9.236;2023-09-19T00:21:03;16.00;91.00
5930;DHT22;2990;48.746;9.236;2023-09-19T00:23:30;16.00;96.10
5930;DHT22;2990;48.746;9.236;2023-09-19T00:26:00;15.90;97.30
5930;DHT22;2990;48.746;9.236;2023-09-19T00:28:26;15.90;97.50
5930;DHT22;2990;48.746;9.236;2023-09-19T00:30:52;16.00;98.40
5930;DHT22;2990;48.746;9.236;2023-09-19T00:33:20;15.90;97.80
5930;DHT22;2990;48.746;9.236;2023-09-19T00:35:48;15.90;94.90
5930;DHT22;2990;48.746;9.236;2023-09-19T00:38:14;15.90;95.70
5930;DHT22;2990;48.746;9.236;2023-09-19T00:40:45;15.90;98.00
5930;DHT22;2990;48.746;9.236;2023-09-19T00:43:11;15.80;99.90
5930;DHT22;2990;48.746;9.236;2023-09-19T00:45:38;15.80;99.90
5930;DHT22;2990;48.746;9.236;2023-09-19T00:48:04;15.80;99.90
5930;DHT22;2990;48.746;9.236;2023-09-19T00:50:32;15.80;99.90
5930;DHT22;2990;48.746;9.236;2023-09-19T00:52:58;15.80;99.90
5930;DHT22;2990;48.746;9.236;2023-09-19T02:35:49;15.80;99.90
5930;DHT22;2990;48.746;9.236;2023-09-19T02:38:15;15.90;1.00
5930;DHT22;2990;48.746;9.236;2023-09-19T02:40:46;15.90;1.00
5930;DHT22;2990;48.746;9.236;2023-09-19T02:43:11;15.90;1.00
5930;DHT22;2990;48.746;9.236;2023-09-19T02:45:37;15.90;1.00
5930;DHT22;2990;48.746;9.236;2023-09-19T02:48:03;15.90;1.00
5930;DHT22;2990;48.746;9.236;2023-09-19T02:50:29;15.80;1.00
5930;DHT22;2990;48.746;9.236;2023-09-19T02:52:55;15.80;1.00
5930;DHT22;2990;48.746;9.236;2023-09-19T02:55:21;15.80;1.00
5930;DHT22;2990;48.746;9.236;2023-09-19T02:57:51;15.80;1.00
5930;DHT22;2990;48.746;9.236;2023-09-19T03:00:18;15.80;1.00
5930;DHT22;2990;48.746;9.236;2023-09-19T03:02:54;15.70;1.00
5930;DHT22;2990;48.746;9.236;2023-09-19T03:05:21;15.70;1.00
5930;DHT22;2990;48.746;9.236;2023-09-19T03:07:47;15.70;1.00
5930;DHT22;2990;48.746;9.236;2023-09-19T03:10:17;15.70;1.00
5930;DHT22;2990;48.746;9.236;2023-09-19T03:12:43;15.80;1.00
5930;DHT22;2990;48.746;9.236;2023-09-19T03:15:08;15.80;1.00
5930;DHT22;2990;48.746;9.236;2023-09-19T03:17:34;15.80;1.00
5930;DHT22;2990;48.746;9.236;2023-09-19T03:20:01;15.80;1.00
5930;DHT22;2990;48.746;9.236;2023-09-19T03:22:27;15.80;1.00
5930;DHT22;2990;48.746;9.236;2023-09-19T03:24:53;15.80;1.00
5930;DHT22;2990;48.746;9.236;2023-09-19T03:27:19;15.80;1.00
5930;DHT22;2990;48.746;9.236;2023-09-19T03:29:46;15.80;1.00
5930;DHT22;2990;48.746;9.236;2023-09-19T03:32:11;15.80;1.00
5930;DHT22;2990;48.746;9.236;2023-09-19T03:34:38;15.80;1.00
5930;DHT22;2990;48.746;9.236;2023-09-19T03:37:07;15.80;1.00
5930;DHT22;2990;48.746;9.236;2023-09-19T03:39:32;15.80;1.00
5930;DHT22;2990;48.746;9.236;2023-09-19T03:41:58;15.70;1.00
5930;DHT22;2990;48.746;9.236;2023-09-19T03:44:24;15.70;1.00
5930;DHT22;2990;48.746;9.236;2023-09-19T03:46:49;15.70;1.00
5930;DHT22;2990;48.746;9.236;2023-09-19T03:49:15;15.70;1.00
5930;DHT22;2990;48.746;9.236;2023-09-19T03:51:40;15.70;1.00
5930;DHT22;2990;48.746;9.236;2023-09-19T03:54:07;15.70;2.50
5930;DHT22;2990;48.746;9.236;2023-09-19T03:56:32;15.70;2.60
5930;DHT22;2990;48.746;9.236;2023-09-19T03:58:58;15.70;5.00
5930;DHT22;2990;48.746;9.236;2023-09-19T04:01:24;15.70;10.40
5930;DHT22;2990;48.746;9.236;2023-09-19T04:03:49;15.70;10.20
5930;DHT22;2990;48.746;9.236;2023-09-19T04:06:17;15.70;7.80
5930;DHT22;2990;48.746;9.236;2023-09-19T04:08:43;15.70;9.00
5930;DHT22;2990;48.746;9.236;2023-09-19T04:11:09;15.70;13.90
5930;DHT22;2990;48.746;9.236;2023-09-19T04:13:35;15.60;21.90
5930;DHT22;2990;48.746;9.236;2023-09-19T04:16:02;15.60;21.90
5930;DHT22;2990;48.746;9.236;2023-09-19T04:18:29;15.60;19.20
5930;DHT22;2990;48.746;9.236;2023-09-19T04:20:58;15.60;21.00
5930;DHT22;2990;48.746;9.236;2023-09-19T04:23:23;15.60;30.70
5930;DHT22;2990;48.746;9.236;2023-09-19T04:25:49;15.60;32.70
5930;DHT22;2990;48.746;9.236;2023-09-19T04:28:15;15.50;32.40
5930;DHT22;2990;48.746;9.236;2023-09-19T04:30:41;15.50;44.50
5930;DHT22;2990;48.746;9.236;2023-09-19T04:33:07;15.50;51.60
5930;DHT22;2990;48.746;9.236;2023-09-19T04:35:33;15.60;59.10
5930;DHT22;2990;48.746;9.236;2023-09-19T04:37:59;15.60;65.00
5930;DHT22;2990;48.746;9.236;2023-09-19T04:40:24;15.60;65.70
5930;DHT22;2990;48.746;9.236;2023-09-19T04:42:57;15.60;68.90
5930;DHT22;2990;48.746;9.236;2023-09-19T04:45:27;15.60;67.00
5930;DHT22;2990;48.746;9.236;2023-09-19T04:47:53;15.60;56.10
5930;DHT22;2990;48.746;9.236;2023-09-19T04:50:19;15.60;50.40
5930;DHT22;2990;48.746;9.236;2023-09-19T04:52:49;15.70;46.70
5930;DHT22;2990;48.746;9.236;2023-09-19T04:55:16;15.70;43.10
5930;DHT22;2990;48.746;9.236;2023-09-19T04:57:52;15.70;36.00
5930;DHT22;2990;48.746;9.236;2023-09-19T05:00:21;15.70;35.90
5930;DHT22;2990;48.746;9.236;2023-09-19T05:02:51;15.70;35.10
5930;DHT22;2990;48.746;9.236;2023-09-19T05:05:17;15.70;39.00
5930;DHT22;2990;48.746;9.236;2023-09-19T05:07:43;15.70;52.40
5930;DHT22;2990;48.746;9.236;2023-09-19T05:10:09;15.70;63.80
5930;DHT22;2990;48.746;9.236;2023-09-19T05:12:38;15.70;76.30
5930;DHT22;2990;48.746;9.236;2023-09-19T05:15:05;15.60;92.80
5930;DHT22;2990;48.746;9.236;2023-09-19T05:17:35;15.60;99.90
5930;DHT22;2990;48.746;9.236;2023-09-19T05:20:02;15.60;99.90
5930;DHT22;2990;48.746;9.236;2023-09-19T05:22:31;15.50;99.90
5930;DHT22;2990;48.746;9.236;2023-09-19T05:27:24;15.40;99.90
5930;DHT22;2990;48.746;9.236;2023-09-19T05:34:45;15.20;99.90
5930;DHT22;2990;48.746;9.236;2023-09-19T05:37:11;15.00;99.90
5930;DHT22;2990;48.746;9.236;2023-09-19T05:39:36;15.00;99.90
5930;DHT22;2990;48.746;9.236;2023-09-19T05:42:03;15.00;99.90
5930;DHT22;2990;48.746;9.236;2023-09-19T05:44:28;15.00;99.90
5930;DHT22;2990;48.746;9.236;2023-09-19T05:46:54;14.90;99.90
5930;DHT22;2990;48.746;9.236;2023-09-19T05:49:22;14.90;99.90
5930;DHT22;2990;48.746;9.236;2023-09-19T05:51:47;14.90;99.90
5930;DHT22;2990;48.746;9.236;2023-09-19T05:54:13;14.90;99.90
5930;DHT22;2990;48.746;9.236;2023-09-19T05:56:38;14.90;99.90
5930;DHT22;2990;48.746;9.236;2023-09-19T05:59:04;14.90;99.90
5930;DHT22;2990;48.746;9.236;2023-09-19T06:01:30;14.90;99.90
5930;DHT22;2990;48.746;9.236;2023-09-19T06:03:57;14.90;99.90
5930;DHT22;2990;48.746;9.236;2023-09-19T06:06:25;14.90;99.90
5930;DHT22;2990;48.746;9.236;2023-09-19T06:08:50;14.80;99.90
5930;DHT22;2990;48.746;9.236;2023-09-19T06:11:16;14.90;99.90
5930;DHT22;2990;48.746;9.236;2023-09-19T06:13:41;14.80;99.90
5930;DHT22;2990;48.746;9.236;2023-09-19T06:16:07;14.80;99.90
5930;DHT22;2990;48.746;9.236;2023-09-19T06:18:34;14.80;99.90
5930;DHT22;2990;48.746;9.236;2023-09-19T06:21:00;14.70;99.90
5930;DHT22;2990;48.746;9.236;2023-09-19T06:23:30;14.70;99.90
5930;DHT22;2990;48.746;9.236;2023-09-19T06:25:56;14.60;99.90
5930;DHT22;2990;48.746;9.236;2023-09-19T06:28:22;14.60;99.90
5930;DHT22;2990;48.746;9.236;2023-09-19T06:30:51;14.50;99.90
5930;DHT22;2990;48.746;9.236;2023-09-19T06:33:16;14.50;99.90
5930;DHT22;2990;48.746;9.236;2023-09-19T06:35:43;14.50;99.90
5930;DHT22;2990;48.746;9.236;2023-09-19T06:38:10;14.40;99.90
5930;DHT22;2990;48.746;9.236;2023-09-19T06:40:38;14.40;99.90
5930;DHT22;2990;48.746;9.236;2023-09-19T06:43:04;14.50;99.90
5930;DHT22;2990;48.746;9.236;2023-09-19T06:45:30;14.50;99.90
5930;DHT22;2990;48.746;9.236;2023-09-19T06:47:57;14.50;99.90
5930;DHT22;2990;48.746;9.236;2023-09-19T06:50:23;14.50;99.90
5930;DHT22;2990;48.746;9.236;2023-09-19T06:52:50;14.60;99.90
5930;DHT22;2990;48.746;9.236;2023-09-19T06:55:17;14.60;99.90
5930;DHT22;2990;48.746;9.236;2023-09-19T06:57:44;14.70;99.90
5930;DHT22;2990;48.746;9.236;2023-09-19T07:00:11;14.60;99.90
5930;DHT22;2990;48.746;9.236;2023-09-19T07:03:01;14.70;99.90
5930;DHT22;2990;48.746;9.236;2023-09-19T07:05:29;14.70;99.90
5930;DHT22;2990;48.746;9.236;2023-09-19T07:07:56;14.80;99.90
5930;DHT22;2990;48.746;9.236;2023-09-19T07:10:24;14.80;99.90
5930;DHT22;2990;48.746;9.236;2023-09-19T07:12:58;14.90;99.90
5930;DHT22;2990;48.746;9.236;2023-09-19T07:15:25;14.90;99.90
5930;DHT22;2990;48.746;9.236;2023-09-19T07:17:54;15.00;99.90
5930;DHT22;2990;48.746;9.236;2023-09-19T07:20:22;15.00;99.90
5930;DHT22;2990;48.746;9.236;2023-09-19T07:22:49;15.00;99.90
5930;DHT22;2990;48.746;9.236;2023-09-19T07:25:16;15.10;99.90
5930;DHT22;2990;48.746;9.236;2023-09-19T07:27:41;15.10;99.90
5930;DHT22;2990;48.746;9.236;2023-09-19T07:30:08;15.20;99.90
5930;DHT22;2990;48.746;9.236;2023-09-19T07:32:34;15.30;99.90
5930;DHT22;2990;48.746;9.236;2023-09-19T07:35:04;15.30;99.90
5930;DHT22;2990;48.746;9.236;2023-09-19T07:37:31;15.30;99.90
5930;DHT22;2990;48.746;9.236;2023-09-19T07:39:59;15.40;99.90
5930;DHT22;2990;48.746;9.236;2023-09-19T07:42:24;15.50;99.90
5930;DHT22;2990;48.746;9.236;2023-09-19T07:44:51;15.60;99.90
5930;DHT22;2990;48.746;9.236;2023-09-19T07:47:17;15.70;99.90
5930;DHT22;2990;48.746;9.236;2023-09-19T07:49:42;15.70;99.90
5930;DHT22;2990;48.746;9.236;2023-09-19T07:52:09;15.80;99.90
5930;DHT22;2990;48.746;9.236;2023-09-19T07:54:35;16.00;99.90
5930;DHT22;2990;48.746;9.236;2023-09-19T07:57:02;16.00;99.90
5930;DHT22;2990;48.746;9.236;2023-09-19T07:59:27;16.10;99.90
5930;DHT22;2990;48.746;9.236;2023-09-19T08:01:53;16.20;99.90
5930;DHT22;2990;48.746;9.236;2023-09-19T08:04:19;16.30;99.90
5930;DHT22;2990;48.746;9.236;2023-09-19T08:06:45;16.30;99.90
5930;DHT22;2990;48.746;9.236;2023-09-19T08:09:11;16.30;99.90
5930;DHT22;2990;48.746;9.236;2023-09-19T08:11:37;16.40;99.90
5930;DHT22;2990;48.746;9.236;2023-09-19T08:14:04;16.50;99.90
5930;DHT22;2990;48.746;9.236;2023-09-19T08:16:31;16.70;99.90
5930;DHT22;2990;48.746;9.236;2023-09-19T08:18:56;16.80;99.90
5930;DHT22;2990;48.746;9.236;2023-09-19T08:21:22;17.00;99.90
5930;DHT22;2990;48.746;9.236;2023-09-19T08:23:49;17.00;1.00
5930;DHT22;2990;48.746;9.236;2023-09-19T08:26:15;17.10;1.00
5930;DHT22;2990;48.746;9.236;2023-09-19T08:28:41;17.10;1.00
5930;DHT22;2990;48.746;9.236;2023-09-19T08:31:07;17.30;1.00
5930;DHT22;2990;48.746;9.236;2023-09-19T08:33:34;17.40;1.00
5930;DHT22;2990;48.746;9.236;2023-09-19T08:36:01;17.50;1.00
5930;DHT22;2990;48.746;9.236;2023-09-19T08:38:33;17.60;1.00
5930;DHT22;2990;48.746;9.236;2023-09-19T08:40:59;17.80;1.00
5930;DHT22;2990;48.746;9.236;2023-09-19T08:43:26;17.80;1.00
5930;DHT22;2990;48.746;9.236;2023-09-19T08:46:14;17.90;1.00
5930;DHT22;2990;48.746;9.236;2023-09-19T08:48:54;17.70;1.00
5930;DHT22;2990;48.746;9.236;2023-09-19T08:51:29;17.70;1.00
5930;DHT22;2990;48.746;9.236;2023-09-19T08:54:06;17.80;99.90
5930;DHT22;2990;48.746;9.236;2023-09-19T08:56:32;17.80;99.90
5930;DHT22;2990;48.746;9.236;2023-09-19T08:59:05;17.80;99.90
5930;DHT22;2990;48.746;9.236;2023-09-19T09:01:33;18.00;99.90
5930;DHT22;2990;48.746;9.236;2023-09-19T09:04:00;18.00;99.90
5930;DHT22;2990;48.746;9.236;2023-09-19T09:06:26;18.10;41.70
5930;DHT22;2990;48.746;9.236;2023-09-19T09:08:53;18.30;1.00
5930;DHT22;2990;48.746;9.236;2023-09-19T09:11:20;18.40;1.00
5930;DHT22;2990;48.746;9.236;2023-09-19T09:13:47;18.50;99.90
5930;DHT22;2990;48.746;9.236;2023-09-19T09:16:13;18.70;99.90
5930;DHT22;2990;48.746;9.236;2023-09-19T09:18:42;18.90;1.00
5930;DHT22;2990;48.746;9.236;2023-09-19T09:21:09;19.00;1.00
5930;DHT22;2990;48.746;9.236;2023-09-19T09:23:35;18.90;1.00
5930;DHT22;2990;48.746;9.236;2023-09-19T09:26:00;18.80;99.90
5930;DHT22;2990;48.746;9.236;2023-09-19T09:28:32;18.60;99.90
5930;DHT22;2990;48.746;9.236;2023-09-19T09:30:59;18.40;1.00
5930;DHT22;2990;48.746;9.236;2023-09-19T09:33:25;18.30;1.00
5930;DHT22;2990;48.746;9.236;2023-09-19T09:35:52;18.30;1.00
5930;DHT22;2990;48.746;9.236;2023-09-19T09:38:25;18.30;99.90
5930;DHT22;2990;48.746;9.236;2023-09-19T09:40:58;18.40;1.00
5930;DHT22;2990;48.746;9.236;2023-09-19T09:43:35;18.60;99.90
5930;DHT22;2990;48.746;9.236;2023-09-19T09:46:11;18.60;1.00
5930;DHT22;2990;48.746;9.236;2023-09-19T09:49:04;18.60;99.20
5930;DHT22;2990;48.746;9.236;2023-09-19T09:52:06;18.50;1.00
5930;DHT22;2990;48.746;9.236;2023-09-19T09:54:34;18.40;1.00
5930;DHT22;2990;48.746;9.236;2023-09-19T09:57:09;18.30;1.00
5930;DHT22;2990;48.746;9.236;2023-09-19T09:59:53;18.30;1.00
5930;DHT22;2990;48.746;9.236;2023-09-19T10:02:20;18.50;1.00
5930;DHT22;2990;48.746;9.236;2023-09-19T10:04:53;18.70;91.80
5930;DHT22;2990;48.746;9.236;2023-09-19T10:07:35;18.80;1.00
5930;DHT22;2990;48.746;9.236;2023-09-19T10:10:06;18.90;99.90
5930;DHT22;2990;48.746;9.236;2023-09-19T10:12:45;18.90;99.90
5930;DHT22;2990;48.746;9.236;2023-09-19T10:15:17;18.80;99.90
5930;DHT22;2990;48.746;9.236;2023-09-19T10:17:46;18.70;99.90
5930;DHT22;2990;48.746;9.236;2023-09-19T10:20:13;18.60;99.90
5930;DHT22;2990;48.746;9.236;2023-09-19T10:22:57;18.50;1.00
5930;DHT22;2990;48.746;9.236;2023-09-19T10:25:28;18.60;99.90
5930;DHT22;2990;48.746;9.236;2023-09-19T10:27:54;18.80;99.90
5930;DHT22;2990;48.746;9.236;2023-09-19T10:30:22;19.20;99.90
5930;DHT22;2990;48.746;9.236;2023-09-19T10:32:57;19.70;93.30
5930;DHT22;2990;48.746;9.236;2023-09-19T10:35:25;20.20;1.00
5930;DHT22;2990;48.746;9.236;2023-09-19T10:37:52;20.40;1.00
5930;DHT22;2990;48.746;9.236;2023-09-19T10:40:19;20.60;1.00
5930;DHT22;2990;48.746;9.236;2023-09-19T10:42:47;20.80;1.00
5930;DHT22;2990;48.746;9.236;2023-09-19T10:45:15;20.90;99.90
5930;DHT22;2990;48.746;9.236;2023-09-19T10:47:42;21.20;99.90
5930;DHT22;2990;48.746;9.236;2023-09-19T10:50:08;21.50;99.90
5930;DHT22;2990;48.746;9.236;2023-09-19T10:52:40;21.80;99.90
5930;DHT22;2990;48.746;9.236;2023-09-19T10:55:07;22.00;99.90
5930;DHT22;2990;48.746;9.236;2023-09-19T10:57:35;22.20;99.90
5930;DHT22;2990;48.746;9.236;2023-09-19T11:00:06;22.30;99.90
5930;DHT22;2990;48.746;9.236;2023-09-19T11:05:39;21.90;99.90
5930;DHT22;2990;48.746;9.236;2023-09-19T11:08:07;21.90;99.90
5930;DHT22;2990;48.746;9.236;2023-09-19T11:10:50;21.80;99.90
5930;DHT22;2990;48.746;9.236;2023-09-19T11:13:30;21.80;99.90
5930;DHT22;2990;48.746;9.236;2023-09-19T11:16:04;21.50;99.90
5930;DHT22;2990;48.746;9.236;2023-09-19T11:27:12;21.40;99.90
5930;DHT22;2990;48.746;9.236;2023-09-19T11:29:39;21.50;99.90
5930;DHT22;2990;48.746;9.236;2023-09-19T11:32:05;21.70;99.90
5930;DHT22;2990;48.746;9.236;2023-09-19T11:34:40;21.70;99.90
5930;DHT22;2990;48.746;9.236;2023-09-19T11:39:40;22.00;99.90
5930;DHT22;2990;48.746;9.236;2023-09-19T11:42:45;22.00;99.90
5930;DHT22;2990;48.746;9.236;2023-09-19T11:48:23;21.60;99.90
5930;DHT22;2990;48.746;9.236;2023-09-19T11:50:51;21.50;99.90
5930;DHT22;2990;48.746;9.236;2023-09-19T11:53:17;21.30;99.90
5930;DHT22;2990;48.746;9.236;2023-09-19T11:55:45;21.30;99.90
5930;DHT22;2990;48.746;9.236;2023-09-19T11:58:12;21.40;99.90
5930;DHT22;2990;48.746;9.236;2023-09-19T12:00:40;21.60;99.90
5930;DHT22;2990;48.746;9.236;2023-09-19T12:03:10;21.90;99.90
5930;DHT22;2990;48.746;9.236;2023-09-19T12:05:36;22.00;99.90
5930;DHT22;2990;48.746;9.236;2023-09-19T12:08:03;22.10;99.90
5930;DHT22;2990;48.746;9.236;2023-09-19T12:10:30;22.10;99.90
5930;DHT22;2990;48.746;9.236;2023-09-19T12:12:57;22.10;99.90
5930;DHT22;2990;48.746;9.236;2023-09-19T12:15:26;21.90;99.90
5930;DHT22;2990;48.746;9.236;2023-09-19T12:18:00;21.80;99.90
5930;DHT22;2990;48.746;9.236;2023-09-19T12:20:43;21.70;99.90
5930;DHT22;2990;48.746;9.236;2023-09-19T12:23:14;21.70;99.90
5930;DHT22;2990;48.746;9.236;2023-09-19T12:25:44;21.60;99.90
5930;DHT22;2990;48.746;9.236;2023-09-19T12:28:13;21.40;99.90
5930;DHT22;2990;48.746;9.236;2023-09-19T12:30:38;21.50;99.90
5930;DHT22;2990;48.746;9.236;2023-09-19T12:33:23;21.80;99.90
5930;DHT22;2990;48.746;9.236;2023-09-19T12:35:51;22.10;99.90
5930;DHT22;2990;48.746;9.236;2023-09-19T12:38:27;22.30;99.90
5930;DHT22;2990;48.746;9.236;2023-09-19T12:41:01;22.50;99.90
5930;DHT22;2990;48.746;9.236;2023-09-19T12:43:31;22.90;99.90
5930;DHT22;2990;48.746;9.236;2023-09-19T12:46:02;22.90;99.90
5930;DHT22;2990;48.746;9.236;2023-09-19T12:48:28;23.00;99.90
5930;DHT22;2990;48.746;9.236;2023-09-19T12:53:37;22.90;99.90
5930;DHT22;2990;48.746;9.236;2023-09-19T12:56:06;22.90;91.10
5930;DHT22;2990;48.746;9.236;2023-09-19T12:58:34;23.00;96.10
5930;DHT22;2990;48.746;9.236;2023-09-19T13:01:00;23.10;90.80
5930;DHT22;2990;48.746;9.236;2023-09-19T13:03:30;23.20;83.70
5930;DHT22;2990;48.746;9.236;2023-09-19T13:06:03;23.20;63.80
5930;DHT22;2990;48.746;9.236;2023-09-19T13:08:34;23.20;99.90
5930;DHT22;2990;48.746;9.236;2023-09-19T13:11:14;23.10;59.70
5930;DHT22;2990;48.746;9.236;2023-09-19T13:13:43;23.20;68.50
5930;DHT22;2990;48.746;9.236;2023-09-19T13:16:19;23.20;99.90
5930;DHT22;2990;48.746;9.236;2023-09-19T13:18:54;23.30;51.00
5930;DHT22;2990;48.746;9.236;2023-09-19T13:21:34;23.30;45.10
5930;DHT22;2990;48.746;9.236;2023-09-19T13:24:25;23.50;40.00
5930;DHT22;2990;48.746;9.236;2023-09-19T13:26:55;23.70;42.60
5930;DHT22;2990;48.746;9.236;2023-09-19T13:29:20;23.60;42.70
5930;DHT22;2990;48.746;9.236;2023-09-19T13:31:47;23.50;38.30
5930;DHT22;2990;48.746;9.236;2023-09-19T13:34:13;23.40;37.00
5930;DHT22;2990;48.746;9.236;2023-09-19T13:36:41;23.40;35.80
5930;DHT22;2990;48.746;9.236;2023-09-19T13:39:07;23.40;25.30
5930;DHT22;2990;48.746;9.236;2023-09-19T13:41:35;23.40;24.60
5930;DHT22;2990;48.746;9.236;2023-09-19T13:44:02;23.50;43.40
5930;DHT22;2990;48.746;9.236;2023-09-19T13:46:28;23.60;27.30
5930;DHT22;2990;48.746;9.236;2023-09-19T13:48:53;23.50;16.90
5930;DHT22;2990;48.746;9.236;2023-09-19T13:51:20;23.50;14.10
5930;DHT22;2990;48.746;9.236;2023-09-19T13:53:49;23.50;14.00
5930;DHT22;2990;48.746;9.236;2023-09-19T13:56:16;23.40;16.00
5930;DHT22;2990;48.746;9.236;2023-09-19T13:58:41;23.40;16.80
5930;DHT22;2990;48.746;9.236;2023-09-19T14:01:07;23.50;18.00
5930;DHT22;2990;48.746;9.236;2023-09-19T14:03:41;23.50;15.60
5930;DHT22;2990;48.746;9.236;2023-09-19T14:06:12;23.60;15.90
5930;DHT22;2990;48.746;9.236;2023-09-19T14:08:37;23.60;10.70
5930;DHT22;2990;48.746;9.236;2023-09-19T14:11:07;23.60;9.10
5930;DHT22;2990;48.746;9.236;2023-09-19T14:13:33;23.40;92.50
5930;DHT22;2990;48.746;9.236;2023-09-19T14:16:05;23.30;99.90
5930;DHT22;2990;48.746;9.236;2023-09-19T14:18:32;23.10;15.80
5930;DHT22;2990;48.746;9.236;2023-09-19T14:20:58;23.10;36.60
5930;DHT22;2990;48.746;9.236;2023-09-19T14:23:23;23.00;7.50
5930;DHT22;2990;48.746;9.236;2023-09-19T14:25:50;23.20;33.20
5930;DHT22;2990;48.746;9.236;2023-09-19T14:28:17;23.10;28.50
5930;DHT22;2990;48.746;9.236;2023-09-19T14:30:43;23.10;44.30
5930;DHT22;2990;48.746;9.236;2023-09-19T14:33:09;23.00;60.50
5930;DHT22;2990;48.746;9.236;2023-09-19T14:35:37;22.90;54.20
5930;DHT22;2990;48.746;9.236;2023-09-19T14:38:02;22.70;52.60
5930;DHT22;2990;48.746;9.236;2023-09-19T14:40:28;22.60;26.40
5930;DHT22;2990;48.746;9.236;2023-09-19T14:42:53;22.70;45.50
5930;DHT22;2990;48.746;9.236;2023-09-19T15:06:13;22.70;18.80
5930;DHT22;2990;48.746;9.236;2023-09-19T15:08:49;22.80;22.80
5930;DHT22;2990;48.746;9.236;2023-09-19T15:11:18;22.90;27.30
5930;DHT22;2990;48.746;9.236;2023-09-19T16:15:18;21.60;83.00
5930;DHT22;2990;48.746;9.236;2023-09-19T16:17:44;21.50;91.80
5930;DHT22;2990;48.746;9.236;2023-09-19T16:20:10;21.50;90.50
5930;DHT22;2990;48.746;9.236;2023-09-19T16:22:38;21.50;93.60
5930;DHT22;2990;48.746;9.236;2023-09-19T16:25:05;21.40;95.80
5930;DHT22;2990;48.746;9.236;2023-09-19T16:27:30;21.30;92.20
5930;DHT22;2990;48.746;9.236;2023-09-19T16:29:56;21.20;91.60
5930;DHT22;2990;48.746;9.236;2023-09-19T16:32:21;21.20;91.70
5930;DHT22;2990;48.746;9.236;2023-09-19T16:34:47;21.10;97.70
5930;DHT22;2990;48.746;9.236;2023-09-19T16:59:20;20.50;99.90
5930;DHT22;2990;48.746;9.236;2023-09-19T17:01:49;20.40;99.90
5930;DHT22;2990;48.746;9.236;2023-09-19T17:04:14;20.30;99.90
5930;DHT22;2990;48.746;9.236;2023-09-19T17:06:41;20.20;99.90
5930;DHT22;2990;48.746;9.236;2023-09-19T17:09:11;20.10;99.90
5930;DHT22;2990;48.746;9.236;2023-09-19T17:11:37;20.10;99.90
5930;DHT22;2990;48.746;9.236;2023-09-19T17:14:03;20.00;99.90
5930;DHT22;2990;48.746;9.236;2023-09-19T17:16:29;19.90;99.90
5930;DHT22;2990;48.746;9.236;2023-09-19T17:18:56;19.90;99.90
5930;DHT22;2990;48.746;9.236;2023-09-19T17:21:23;19.80;99.90
5930;DHT22;2990;48.746;9.236;2023-09-19T17:23:52;19.70;99.90
5930;DHT22;2990;48.746;9.236;2023-09-19T17:26:19;19.70;99.90
5930;DHT22;2990;48.746;9.236;2023-09-19T17:28:48;19.70;99.90
5930;DHT22;2990;48.746;9.236;2023-09-19T17:31:15;19.60;99.90
5930;DHT22;2990;48.746;9.236;2023-09-19T17:33:42;19.60;99.90
5930;DHT22;2990;48.746;9.236;2023-09-19T17:36:11;19.60;99.90
5930;DHT22;2990;48.746;9.236;2023-09-19T17:38:39;19.50;99.90
5930;DHT22;2990;48.746;9.236;2023-09-19T17:41:06;19.40;99.90
5930;DHT22;2990;48.746;9.236;2023-09-19T17:43:34;19.40;99.90
5930;DHT22;2990;48.746;9.236;2023-09-19T17:48:37;19.30;99.90
5930;DHT22;2990;48.746;9.236;2023-09-19T17:51:02;19.20;99.90
5930;DHT22;2990;48.746;9.236;2023-09-19T17:53:29;19.20;99.90
5930;DHT22;2990;48.746;9.236;2023-09-19T17:55:54;19.10;99.90
5930;DHT22;2990;48.746;9.236;2023-09-19T17:58:20;19.00;99.90
5930;DHT22;2990;48.746;9.236;2023-09-19T18:00:46;19.00;99.90
5930;DHT22;2990;48.746;9.236;2023-09-19T18:03:11;18.90;99.90
5930;DHT22;2990;48.746;9.236;2023-09-19T18:49:39;18.40;99.90
5930;DHT22;2990;48.746;9.236;2023-09-19T18:52:04;18.50;99.90
5930;DHT22;2990;48.746;9.236;2023-09-19T18:54:33;18.30;99.90
5930;DHT22;2990;48.746;9.236;2023-09-19T18:56:58;18.30;99.90
5930;DHT22;2990;48.746;9.236;2023-09-19T18:59:24;18.30;99.90
5930;DHT22;2990;48.746;9.236;2023-09-19T19:01:50;18.20;99.90
5930;DHT22;2990;48.746;9.236;2023-09-19T19:04:15;18.20;99.90
5930;DHT22;2990;48.746;9.236;2023-09-19T19:09:16;18.20;99.90
5930;DHT22;2990;48.746;9.236;2023-09-19T19:11:44;18.10;99.90
5930;DHT22;2990;48.746;9.236;2023-09-19T19:14:10;18.10;99.90
5930;DHT22;2990;48.746;9.236;2023-09-19T19:16:37;18.10;99.90
5930;DHT22;2990;48.746;9.236;2023-09-19T19:19:04;18.00;99.90
5930;DHT22;2990;48.746;9.236;2023-09-19T19:21:30;18.00;99.90
5930;DHT22;2990;48.746;9.236;2023-09-19T19:23:57;18.00;99.90
5930;DHT22;2990;48.746;9.236;2023-09-19T19:26:23;17.90;99.90
5930;DHT22;2990;48.746;9.236;2023-09-19T19:28:49;17.90;99.90
5930;DHT22;2990;48.746;9.236;2023-09-19T19:31:15;17.80;99.90
5930;DHT22;2990;48.746;9.236;2023-09-19T19:33:41;17.80;99.90
5930;DHT22;2990;48.746;9.236;2023-09-19T19:36:10;17.80;99.90
5930;DHT22;2990;48.746;9.236;2023-09-19T19:38:37;17.80;99.90
5930;DHT22;2990;48.746;9.236;2023-09-19T19:41:03;17.80;99.90
5930;DHT22;2990;48.746;9.236;2023-09-19T19:43:30;17.70;99.90
5930;DHT22;2990;48.746;9.236;2023-09-19T21:08:34;16.50;99.90
5930;DHT22;2990;48.746;9.236;2023-09-19T21:11:10;16.50;99.90
5930;DHT22;2990;48.746;9.236;2023-09-19T21:13:36;16.40;99.90
5930;DHT22;2990;48.746;9.236;2023-09-19T21:16:05;16.40;1.00
5930;DHT22;2990;48.746;9.236;2023-09-19T21:18:31;16.30;1.00
5930;DHT22;2990;48.746;9.236;2023-09-19T21:21:01;16.30;1.00
5930;DHT22;2990;48.746;9.236;2023-09-19T21:23:27;16.20;1.00
5930;DHT22;2990;48.746;9.236;2023-09-19T21:25:56;16.20;1.00
5930;DHT22;2990;48.746;9.236;2023-09-19T21:28:22;16.10;1.00
5930;DHT22;2990;48.746;9.236;2023-09-19T21:31:00;16.20;1.00
5930;DHT22;2990;48.746;9.236;2023-09-19T21:33:30;16.20;1.00
5930;DHT22;2990;48.746;9.236;2023-09-19T21:35:56;16.20;1.00
5930;DHT22;2990;48.746;9.236;2023-09-19T21:38:22;16.20;1.00
5930;DHT22;2990;48.746;9.236;2023-09-19T21:40:49;16.20;1.00
5930;DHT22;2990;48.746;9.236;2023-09-19T21:43:15;16.20;1.00
5930;DHT22;2990;48.746;9.236;2023-09-19T21:45:42;16.20;1.00
5930;DHT22;2990;48.746;9.236;2023-09-19T21:48:08;16.10;1.00
5930;DHT22;2990;48.746;9.236;2023-09-19T21:50:35;16.10;1.00
5930;DHT22;2990;48.746;9.236;2023-09-19T21:53:02;16.10;1.00
5930;DHT22;2990;48.746;9.236;2023-09-19T21:55:29;16.10;1.00
5930;DHT22;2990;48.746;9.236;2023-09-19T21:57:55;16.10;1.00
5930;DHT22;2990;48.746;9.236;2023-09-19T22:00:23;16.20;1.00
5930;DHT22;2990;48.746;9.236;2023-09-19T22:03:06;16.00;1.00
5930;DHT22;2990;48.746;9.236;2023-09-19T22:05:36;16.10;1.00
5930;DHT22;2990;48.746;9.236;2023-09-19T22:08:07;16.00;1.00
5930;DHT22;2990;48.746;9.236;2023-09-19T22:13:09;15.80;1.00
5930;DHT22;2990;48.746;9.236;2023-09-19T22:15:35;15.90;1.00
5930;DHT22;2990;48.746;9.236;2023-09-19T22:18:10;15.90;1.00